createdAt,value
2022-10-05T00:02:14.073Z,3.60
2022-10-05T00:07:20.509Z,4.10
2022-10-05T00:12:24.269Z,4.07
2022-10-05T00:17:29.616Z,3.83
2022-10-05T00:22:34.137Z,4.25
2022-10-05T00:27:37.612Z,3.88
2022-10-05T00:32:40.135Z,3.60
2022-10-05T00:37:45.781Z,4.13
2022-10-05T00:42:55.594Z,4.20
2022-10-05T00:48:08.504Z,3.78
2022-10-05T00:53:26.924Z,3.97
2022-10-05T00:58:43.395Z,3.42
2022-10-05T01:03:55.748Z,3.33
2022-10-05T01:09:09.325Z,3.88
2022-10-05T01:14:21.935Z,4.18
2022-10-05T01:19:54.795Z,3.55
2022-10-05T01:25:12.833Z,3.92
2022-10-05T01:30:18.840Z,3.67
2022-10-05T01:35:37.178Z,4.15
2022-10-05T01:40:48.524Z,3.72
2022-10-05T01:46:02.102Z,3.42
2022-10-05T01:51:16.454Z,3.75
2022-10-05T01:56:25.829Z,3.88
2022-10-05T02:01:36.139Z,3.58
2022-10-05T02:06:42.391Z,3.85
2022-10-05T02:11:51.418Z,4.57
2022-10-05T02:16:58.513Z,3.47
2022-10-05T02:22:06.393Z,3.45
2022-10-05T02:27:12.210Z,3.28
2022-10-05T02:32:20.332Z,2.58
2022-10-05T02:37:30.172Z,3.03
2022-10-05T02:42:43.465Z,2.88
2022-10-05T02:47:56.243Z,2.75
2022-10-05T02:53:11.282Z,2.90
2022-10-05T02:58:18.123Z,3.08
2022-10-05T03:03:28.224Z,2.95
2022-10-05T03:08:39.551Z,3.22
2022-10-05T03:13:48.123Z,3.22
2022-10-05T03:19:07.092Z,3.22
2022-10-05T03:24:25.419Z,3.45
2022-10-05T03:29:35.995Z,3.50
2022-10-05T03:34:46.393Z,3.33
2022-10-05T03:39:55.500Z,3.60
2022-10-05T03:45:07.587Z,3.60
2022-10-05T03:50:28.823Z,3.30
2022-10-05T03:55:37.422Z,3.88
2022-10-05T04:00:42.866Z,3.60
2022-10-05T04:05:51.050Z,3.60
2022-10-05T04:10:56.124Z,3.60
2022-10-05T04:16:02.888Z,3.38
2022-10-05T04:21:11.713Z,3.97
2022-10-05T04:26:19.787Z,3.50
2022-10-05T04:31:41.722Z,3.47
2022-10-05T04:36:55.596Z,3.50
2022-10-05T04:42:07.053Z,3.70
2022-10-05T04:47:31.602Z,3.40
2022-10-05T04:52:45.754Z,3.65
2022-10-05T04:57:55.541Z,3.30
2022-10-05T05:03:34.960Z,3.63
2022-10-05T05:09:04.604Z,3.15
2022-10-05T05:14:39.770Z,3.55
2022-10-05T05:19:55.710Z,3.60
2022-10-05T05:25:20.313Z,3.50
2022-10-05T05:30:25.491Z,4.10
2022-10-05T05:35:53.455Z,3.80
2022-10-05T05:41:07.824Z,3.92
2022-10-05T05:46:17.267Z,4.28
2022-10-05T05:51:25.791Z,4.63
2022-10-05T05:56:34.895Z,4.65
2022-10-05T06:01:44.919Z,4.50
2022-10-05T06:06:51.480Z,3.97
2022-10-05T06:12:01.110Z,4.63
2022-10-05T06:17:08.014Z,4.50
2022-10-05T06:22:19.770Z,4.97
2022-10-05T06:27:27.482Z,4.70
2022-10-05T06:32:33.031Z,5.30
2022-10-05T06:37:54.721Z,4.90
2022-10-05T06:43:12.593Z,5.53
2022-10-05T06:48:25.649Z,5.07
2022-10-05T06:53:34.171Z,5.30
2022-10-05T06:58:50.904Z,4.43
2022-10-05T07:04:17.216Z,5.40
2022-10-05T07:09:32.993Z,5.70
2022-10-05T07:14:52.286Z,5.68
2022-10-05T07:20:03.436Z,6.00
2022-10-05T07:25:13.471Z,7.15
2022-10-05T07:30:18.277Z,4.85
2022-10-05T07:35:32.363Z,5.00
2022-10-05T07:40:40.363Z,4.93
2022-10-05T07:45:51.805Z,5.00
2022-10-05T07:51:03.465Z,5.30
2022-10-05T07:56:14.658Z,5.03
2022-10-05T08:01:25.205Z,5.20
2022-10-05T08:06:44.857Z,4.22
2022-10-05T08:11:58.245Z,5.03
2022-10-05T08:17:06.415Z,4.55
2022-10-05T08:22:13.183Z,4.43
2022-10-05T08:27:20.637Z,4.95
2022-10-05T08:32:30.130Z,4.43
2022-10-05T08:37:37.272Z,4.30
2022-10-05T08:43:09.109Z,4.68
2022-10-05T08:48:44.541Z,4.28
2022-10-05T08:54:29.666Z,4.07
2022-10-05T08:59:58.480Z,4.10
2022-10-05T09:05:24.605Z,4.22
2022-10-05T09:11:00.095Z,4.22
2022-10-05T09:16:24.166Z,3.83
2022-10-05T09:21:40.623Z,3.55
2022-10-05T09:26:47.086Z,3.50
2022-10-05T09:32:24.682Z,3.27
2022-10-05T09:38:11.923Z,3.40
2022-10-05T09:44:05.298Z,3.45
2022-10-05T09:49:32.503Z,3.65
2022-10-05T09:55:30.052Z,3.20
2022-10-05T10:00:50.078Z,2.90
2022-10-05T10:06:29.287Z,2.67
2022-10-05T10:11:44.955Z,2.80
2022-10-05T10:17:21.465Z,2.95
2022-10-05T10:22:47.907Z,2.80
2022-10-05T10:28:22.279Z,2.72
2022-10-05T10:34:06.096Z,2.70
2022-10-05T10:39:18.641Z,2.50
2022-10-05T10:45:00.328Z,2.55
2022-10-05T10:50:51.182Z,2.35
2022-10-05T10:56:17.478Z,6.60
2022-10-05T11:01:33.025Z,2.90
2022-10-05T11:06:51.374Z,2.72
2022-10-05T11:12:25.786Z,2.90
2022-10-05T11:17:46.795Z,3.22
2022-10-05T11:23:19.993Z,3.00
2022-10-05T11:29:01.129Z,2.70
2022-10-05T11:34:45.795Z,3.10
2022-10-05T11:40:08.286Z,3.08
2022-10-05T11:45:25.182Z,3.47
2022-10-05T11:50:36.528Z,3.00
2022-10-05T11:55:44.964Z,3.15
2022-10-05T12:00:55.132Z,2.70
2022-10-05T12:06:22.794Z,3.45
2022-10-05T12:11:57.532Z,2.72
2022-10-05T12:17:07.289Z,2.90
2022-10-05T12:22:16.026Z,3.13
2022-10-05T12:27:25.142Z,3.53
2022-10-05T12:32:41.900Z,2.83
2022-10-05T12:37:50.659Z,3.00
2022-10-05T12:43:03.293Z,2.67
2022-10-05T12:48:23.319Z,2.60
2022-10-05T12:53:37.357Z,2.25
2022-10-05T12:58:52.127Z,2.58
2022-10-05T13:04:06.787Z,2.10
2022-10-05T13:09:15.440Z,2.17
2022-10-05T13:14:43.409Z,2.60
2022-10-05T13:19:52.969Z,1.88
2022-10-05T13:25:05.587Z,2.67
2022-10-05T13:30:16.088Z,2.40
2022-10-05T13:35:34.408Z,2.15
2022-10-05T13:40:45.974Z,2.08
2022-10-05T13:45:56.631Z,2.30
2022-10-05T13:51:09.538Z,2.45
2022-10-05T13:56:20.948Z,2.50
2022-10-05T14:01:40.026Z,2.42
2022-10-05T14:06:45.315Z,2.22
2022-10-05T14:11:50.649Z,2.47
2022-10-05T14:16:55.754Z,2.15
2022-10-05T14:22:04.250Z,2.80
2022-10-05T14:27:20.663Z,2.63
2022-10-05T14:32:24.689Z,2.15
2022-10-05T14:37:42.585Z,2.15
2022-10-05T14:42:47.409Z,2.30
2022-10-05T14:47:52.686Z,2.30
2022-10-05T14:53:15.494Z,2.15
2022-10-05T14:58:42.561Z,2.00
2022-10-05T15:03:52.837Z,2.47
2022-10-05T15:09:27.384Z,2.58
2022-10-05T15:14:34.193Z,2.40
2022-10-05T15:19:46.184Z,2.60
2022-10-05T15:25:00.865Z,2.00
2022-10-05T15:30:12.074Z,2.00
2022-10-05T15:35:37.885Z,1.95
2022-10-05T15:40:46.828Z,2.55
2022-10-05T15:46:04.657Z,2.30
2022-10-05T15:51:18.384Z,2.50
2022-10-05T15:56:30.410Z,2.42
2022-10-05T16:01:47.229Z,2.00
2022-10-05T16:06:53.782Z,2.80
2022-10-05T16:12:21.933Z,2.27
2022-10-05T16:17:51.991Z,2.40
2022-10-05T16:23:03.575Z,3.47
2022-10-05T16:28:20.129Z,2.17
2022-10-05T16:33:32.860Z,1.80
2022-10-05T16:38:49.573Z,2.20
2022-10-05T16:44:01.993Z,1.88
2022-10-05T16:49:15.323Z,2.00
2022-10-05T16:54:22.073Z,1.75
2022-10-05T17:00:00.546Z,1.98
2022-10-05T17:05:18.724Z,2.28
2022-10-05T17:10:50.282Z,1.92
2022-10-05T17:16:09.675Z,3.03
2022-10-05T17:21:17.371Z,2.60
2022-10-05T17:26:57.623Z,2.65
2022-10-05T17:32:02.898Z,2.65
2022-10-05T17:37:34.590Z,2.42
2022-10-05T17:42:58.837Z,2.15
2022-10-05T17:48:04.396Z,2.35
2022-10-05T17:53:53.678Z,1.95
2022-10-05T17:59:04.442Z,2.72
2022-10-05T18:04:45.122Z,2.05
2022-10-05T18:10:03.355Z,1.50
2022-10-05T18:15:43.215Z,1.70
2022-10-05T18:21:26.373Z,1.73
2022-10-05T18:26:48.400Z,1.83
2022-10-05T18:31:59.474Z,2.10
2022-10-05T18:37:17.745Z,1.90
2022-10-05T18:42:36.042Z,1.70
2022-10-05T18:47:47.932Z,2.20
2022-10-05T18:53:03.306Z,1.95
2022-10-05T18:58:30.883Z,2.03
2022-10-05T19:03:44.710Z,1.60
2022-10-05T19:09:03.693Z,1.20
2022-10-05T19:14:18.653Z,2.00
2022-10-05T19:20:00.111Z,1.60
2022-10-05T19:25:24.810Z,1.80
2022-10-05T19:30:43.279Z,1.45
2022-10-05T19:36:00.749Z,1.90
2022-10-05T19:41:14.263Z,1.58
2022-10-05T19:46:30.415Z,1.75
2022-10-05T19:51:49.212Z,1.60
2022-10-05T19:56:53.717Z,1.42
2022-10-05T20:01:59.628Z,2.33
2022-10-05T20:07:02.691Z,1.83
2022-10-05T20:12:05.808Z,1.98
2022-10-05T20:17:26.503Z,1.80
2022-10-05T20:22:33.019Z,1.85
2022-10-05T20:27:47.493Z,1.73
2022-10-05T20:32:54.049Z,2.20
2022-10-05T20:37:58.205Z,1.90
2022-10-05T20:43:00.689Z,2.15
2022-10-05T20:48:04.673Z,1.73
2022-10-05T20:53:11.764Z,1.48
2022-10-05T20:58:15.412Z,1.90
2022-10-05T21:03:19.322Z,2.08
2022-10-05T21:08:21.860Z,1.80
2022-10-05T21:13:24.394Z,1.33
2022-10-05T21:18:28.832Z,1.50
2022-10-05T21:23:31.843Z,1.42
2022-10-05T21:28:34.590Z,1.30
2022-10-05T21:33:39.064Z,0.93
2022-10-05T21:38:42.107Z,0.60
2022-10-05T21:43:44.554Z,0.65
2022-10-05T21:48:49.871Z,0.40
2022-10-05T21:53:55.497Z,0.88
2022-10-05T21:58:59.125Z,0.65
2022-10-05T22:04:02.978Z,0.88
2022-10-05T22:09:06.467Z,0.57
2022-10-05T22:14:09.025Z,0.63
2022-10-05T22:19:15.792Z,0.50
2022-10-05T22:24:18.116Z,0.50
2022-10-05T22:29:21.582Z,0.40
2022-10-05T22:34:25.865Z,0.50
2022-10-05T22:39:28.284Z,0.40
2022-10-05T22:44:30.872Z,0.57
2022-10-05T22:49:34.987Z,0.75
2022-10-05T22:54:37.591Z,0.50
2022-10-05T22:59:40.072Z,0.40
2022-10-05T23:04:44.086Z,0.60
2022-10-05T23:09:46.735Z,0.40
2022-10-05T23:14:49.318Z,0.43
2022-10-05T23:19:53.737Z,0.70
2022-10-05T23:24:56.475Z,0.60
2022-10-05T23:29:58.986Z,0.85
2022-10-05T23:35:03.029Z,0.50
2022-10-05T23:40:07.611Z,0.35
2022-10-05T23:45:11.877Z,0.60
2022-10-05T23:50:16.188Z,0.60
2022-10-05T23:55:18.624Z,0.63
